Airfield :
LOGIN :

Register | Disclaimer

   EN    FR    IT 

 










Legend :    VFR   Marginal VFR   IFR   Intensive IFR   Very Intensive IFR
Visi :
Ceiling :
>= 8 km
>= 3000ft
5 to 8 km
1000 to 3000 ft
1500m to 5 km
500 to 1000 ft
800 to 1500m
200 to 500 ft
< 800m
< 200 ft
Symbols :   Thunderstorms  Fog  Heavy snow  Heavy precipitations  Wind > 20 kt
SIGMETs :     Misc.  Thunderstorms  Icing  Turbulence  Mountain Waves  Volcanic Ashes







- Airport Elevation : 424 ft
- IATA code : QGY


LHPR - Györ Per

CURRENT METAR :
  • 291245Z 21007KT 140V260 CAVOK 27/12 Q1017 RMK BLU

EXPIRED METARs :
  • 291215Z 21006KT 140V280 CAVOK 26/10 Q1017 RMK BLU
  • 291145Z 21007KT 120V260 CAVOK 26/11 Q1017 RMK BLU
  • 291115Z 21007KT 160V270 CAVOK 26/11 Q1018 RMK BLU
  • 291045Z 21008KT 160V290 CAVOK 25/11 Q1018 RMK BLU
  • 291015Z 21009KT 130V260 CAVOK 25/10 Q1018 RMK BLU

TAF TAF LHPR
Valid from the 29 at 12:00 until the 29 at 21:00 UTC


291115Z 2912/2921 20010KT CAVOK
BECMG 2915/2918 VRB03KT
No reported NOTAMs for that airfield.



MET'MAP, your aeronautical weather chart ! - Copyright ORBIFLY December 2007 - Disclaimer

ORBIFLY MET'MAP TEAM :

Programming & Development : Alexandra Zaïnal
Concept & Development : Baudouin d'Aumeries
Co-Development & Prog : Marc-Olivier Méhu
Technical & hardware support : Manuel Goepfert

Contact : metmap@orbifly.com




SOURCES & CREDITS :

   NOAA